Time;durP1;ratioP1;P1;durP2;ratioP2;P2;SDS_P1;SDS_P2;PMS_P1;PMS_P2;Temp;Humidity;BMP_temperature;BMP_pressure;BME280_temperature;BME280_humidity;BME280_pressure;Samples;Min_cycle;Max_cycle;Signal;HPM_P1;HPM_P2
2021/05/13 00:00:35;;;;;;;1999.90;999.90;;;8.50;99.90;;;;;;4920545;29;20200;-91
2021/05/13 00:03:01;;;;;;;1999.90;999.90;;;8.50;99.90;;;;;;4920813;29;20208;-91
2021/05/13 00:05:40;;;;;;;1999.90;999.90;;;8.50;99.90;;;;;;4920595;29;20185;-93
2021/05/13 00:08:08;;;;;;;1999.90;999.90;;;8.50;99.90;;;;;;4920243;29;20189;-91
2021/05/13 00:10:36;;;;;;;1999.90;999.90;;;8.50;99.90;;;;;;4920684;29;20185;-93
2021/05/13 00:13:04;;;;;;;1999.90;999.90;;;8.50;99.90;;;;;;4921062;29;20181;-91
2021/05/13 00:15:40;;;;;;;1999.90;999.90;;;8.50;99.90;;;;;;4920268;29;20205;-92
2021/05/13 00:18:14;;;;;;;1999.90;999.90;;;8.50;99.90;;;;;;4920260;29;20181;-92
2021/05/13 00:20:42;;;;;;;1999.90;999.90;;;8.60;99.90;;;;;;4936398;28;20185;-91
2021/05/13 00:23:11;;;;;;;1999.90;999.90;;;8.60;99.90;;;;;;4936113;28;20178;-92
2021/05/13 00:25:37;;;;;;;1999.90;999.90;;;8.50;99.90;;;;;;4920586;29;20189;-93
2021/05/13 00:28:09;;;;;;;1999.90;999.90;;;8.40;99.90;;;;;;4936716;28;20276;-91
2021/05/13 00:30:35;;;;;;;1999.90;999.90;;;8.40;99.90;;;;;;4936027;28;20185;-92
2021/05/13 00:33:01;;;;;;;1999.90;999.90;;;8.30;99.90;;;;;;4936170;28;20180;-92
2021/05/13 00:35:27;;;;;;;1999.90;999.90;;;8.30;99.90;;;;;;4920434;29;20756;-92
2021/05/13 00:37:53;;;;;;;1999.90;999.90;;;8.30;99.90;;;;;;4920365;29;20792;-93
2021/05/13 00:40:19;;;;;;;1999.90;999.90;;;8.30;99.90;;;;;;4920191;29;20661;-92
2021/05/13 00:42:48;;;;;;;1999.90;999.90;;;8.30;99.90;;;;;;4936275;28;20182;-92
2021/05/13 00:45:16;;;;;;;1999.90;999.90;;;8.30;99.90;;;;;;4936051;28;20664;-92
2021/05/13 00:48:01;;;;;;;1999.90;999.90;;;8.20;99.90;;;;;;4935964;28;20185;-91
2021/05/13 00:50:31;;;;;;;1999.90;999.90;;;8.20;99.90;;;;;;4920123;29;20185;-91
2021/05/13 00:52:57;;;;;;;1999.90;999.90;;;8.20;99.90;;;;;;4923414;29;20653;-93
2021/05/13 00:55:22;;;;;;;1999.90;999.90;;;8.30;99.90;;;;;;4923618;29;20354;-92
2021/05/13 00:57:56;;;;;;;1999.90;999.90;;;8.30;99.90;;;;;;4923687;29;20276;-91
2021/05/13 01:00:44;;;;;;;1999.90;999.90;;;8.40;99.90;;;;;;4923663;29;20197;-91
2021/05/13 01:03:10;;;;;;;1999.90;999.90;;;8.40;99.90;;;;;;4924177;29;20216;-92
2021/05/13 01:05:37;;;;;;;1999.90;999.90;;;8.40;99.90;;;;;;4923635;29;20231;-92
2021/05/13 01:08:03;;;;;;;1999.90;999.90;;;8.50;99.90;;;;;;4939700;28;20346;-92
2021/05/13 01:10:30;;;;;;;1999.90;999.90;;;8.40;99.90;;;;;;4923645;29;20181;-92
2021/05/13 01:13:00;;;;;;;1999.90;999.90;;;8.50;99.90;;;;;;4939639;28;20255;-92
2021/05/13 01:15:34;;;;;;;1999.90;999.90;;;8.60;99.90;;;;;;4939571;29;20228;-92
2021/05/13 01:20:40;;;;;;;1999.90;999.90;;;8.70;99.90;;;;;;4940273;29;20667;-93
2021/05/13 01:23:10;;;;;;;1999.90;999.90;;;8.80;99.90;;;;;;4939124;28;20185;-92
2021/05/13 01:25:47;;;;;;;1999.90;999.90;;;8.80;99.90;;;;;;4923339;29;20212;-93
2021/05/13 01:28:13;;;;;;;1999.90;999.90;;;8.80;99.90;;;;;;4939102;28;20244;-92
2021/05/13 01:30:43;;;;;;;1999.90;999.90;;;8.80;99.90;;;;;;4923511;29;20182;-90
2021/05/13 01:33:15;;;;;;;1999.90;999.90;;;8.90;99.90;;;;;;4939496;28;20595;-91
2021/05/13 01:35:41;;;;;;;1999.90;999.90;;;8.90;99.90;;;;;;4936130;29;20296;-91
2021/05/13 01:38:10;;;;;;;1999.90;999.90;;;8.90;99.90;;;;;;4923680;29;20232;-92
2021/05/13 01:40:42;;;;;;;1999.90;999.90;;;9.00;99.90;;;;;;4938740;28;20182;-91
2021/05/13 01:43:08;;;;;;;1999.90;999.90;;;8.90;99.90;;;;;;4938898;28;20663;-92
2021/05/13 01:45:34;;;;;;;1999.90;999.90;;;8.90;99.90;;;;;;4923010;29;20186;-90
2021/05/13 01:48:04;;;;;;;1999.90;999.90;;;9.00;99.90;;;;;;4938845;28;20237;-92
2021/05/13 01:50:34;;;;;;;1999.90;999.90;;;9.00;99.90;;;;;;4922737;29;20660;-92
2021/05/13 01:53:04;;;;;;;1999.90;999.90;;;9.00;99.90;;;;;;4923151;29;20209;-92
2021/05/13 01:55:30;;;;;;;1999.90;999.90;;;9.00;99.90;;;;;;4938527;28;20292;-92
2021/05/13 01:57:58;;;;;;;1999.90;999.90;;;9.10;99.90;;;;;;4938527;28;20575;-91
2021/05/13 02:00:27;;;;;;;1999.90;999.90;;;9.10;99.90;;;;;;4922802;29;20196;-93
2021/05/13 02:02:55;;;;;;;1999.90;999.90;;;9.20;99.90;;;;;;4938737;28;20193;-91
2021/05/13 02:05:32;;;;;;;1999.90;999.90;;;9.20;99.90;;;;;;4922640;29;20185;-92
2021/05/13 02:08:01;;;;;;;1999.90;999.90;;;9.20;99.90;;;;;;4922592;29;20185;-92
2021/05/13 02:10:27;;;;;;;1999.90;999.90;;;9.20;99.90;;;;;;4938724;28;20193;-94
2021/05/13 02:12:56;;;;;;;1999.90;999.90;;;9.20;99.90;;;;;;4922590;29;20181;-93
2021/05/13 02:15:23;;;;;;;1999.90;999.90;;;9.20;99.90;;;;;;4922084;29;20205;-93
2021/05/13 02:17:52;;;;;;;1999.90;999.90;;;9.30;99.90;;;;;;4922561;29;20272;-92
2021/05/13 02:20:23;;;;;;;1999.90;999.90;;;9.30;99.90;;;;;;4922478;29;20185;-91
2021/05/13 02:22:49;;;;;;;1999.90;999.90;;;9.30;99.90;;;;;;4937903;28;20217;-92
2021/05/13 02:25:21;;;;;;;1999.90;999.90;;;9.40;99.90;;;;;;4937887;28;20186;-92
2021/05/13 02:27:46;;;;;;;1999.90;999.90;;;9.40;99.90;;;;;;4938341;28;20664;-93
2021/05/13 02:30:14;;;;;;;1999.90;999.90;;;9.30;99.90;;;;;;4922460;29;20189;-92
2021/05/13 02:32:40;;;;;;;1999.90;999.90;;;9.40;99.90;;;;;;4938401;28;20209;-92
2021/05/13 02:35:10;;;;;;;1999.90;999.90;;;9.40;99.90;;;;;;4922226;29;20223;-92
2021/05/13 02:37:46;;;;;;;1999.90;999.90;;;9.40;99.90;;;;;;4937891;28;20599;-92
2021/05/13 02:40:16;;;;;;;1999.90;999.90;;;9.30;99.90;;;;;;4921869;29;20232;-93
2021/05/13 02:42:48;;;;;;;1999.90;999.90;;;9.30;99.90;;;;;;4937909;28;20189;-91
2021/05/13 02:45:17;;;;;;;1999.90;999.90;;;9.40;99.90;;;;;;4921923;29;20595;-92
2021/05/13 02:47:43;;;;;;;1999.90;999.90;;;9.30;99.90;;;;;;4937943;28;20549;-94
2021/05/13 02:50:13;;;;;;;1999.90;999.90;;;9.30;99.90;;;;;;4937693;28;20620;-92
2021/05/13 02:52:46;;;;;;;1999.90;999.90;;;9.30;99.90;;;;;;4937645;28;20559;-92
2021/05/13 02:55:13;;;;;;;1999.90;999.90;;;9.30;99.90;;;;;;4937762;28;20292;-91
2021/05/13 02:57:42;;;;;;;1999.90;999.90;;;9.30;99.90;;;;;;4937671;28;20641;-91
2021/05/13 03:00:19;;;;;;;1999.90;999.90;;;9.40;99.90;;;;;;4921882;29;20559;-91
2021/05/13 03:02:50;;;;;;;1999.90;999.90;;;9.40;99.90;;;;;;4937673;29;20183;-92
2021/05/13 03:05:26;;;;;;;1999.90;999.90;;;9.40;99.90;;;;;;4921676;29;20213;-92
2021/05/13 03:08:04;;;;;;;;;;;;;;;;;;;;;
2021/05/13 03:10:42;;;;;;;1999.90;999.90;;;9.30;99.90;;;;;;4938895;29;20168;-92
2021/05/13 03:13:22;;;;;;;1999.90;999.90;;;9.30;99.90;;;;;;4937340;29;20276;-91
2021/05/13 03:15:55;;;;;;;1999.90;999.90;;;9.30;99.90;;;;;;4920515;29;20233;-92
2021/05/13 03:18:24;;;;;;;1999.90;999.90;;;9.20;99.90;;;;;;4921761;29;20232;-92
2021/05/13 03:20:59;;;;;;;1999.90;999.90;;;9.20;99.90;;;;;;4931113;29;20213;-92
2021/05/13 03:23:30;;;;;;;1999.90;999.90;;;9.20;99.90;;;;;;4924648;29;20189;-93
2021/05/13 03:26:00;;;;;;;1999.90;999.90;;;9.10;99.90;;;;;;4921522;29;20699;-93
2021/05/13 03:28:31;;;;;;;1999.90;999.90;;;9.10;99.90;;;;;;4921434;29;20178;-91
2021/05/13 03:30:57;;;;;;;1999.90;999.90;;;9.00;99.90;;;;;;4937554;28;20240;-93
2021/05/13 03:33:23;;;;;;;1999.90;999.90;;;9.00;99.90;;;;;;4937218;29;20189;-93
2021/05/13 03:35:49;;;;;;;1999.90;999.90;;;9.00;99.90;;;;;;4936806;29;20209;-92
2021/05/13 03:38:18;;;;;;;1999.90;999.90;;;8.90;99.90;;;;;;4920908;29;20185;-92
2021/05/13 03:40:48;;;;;;;1999.90;999.90;;;8.90;99.90;;;;;;4920945;29;20309;-92
2021/05/13 03:43:15;;;;;;;1999.90;999.90;;;8.90;99.90;;;;;;4921084;29;20185;-92
2021/05/13 03:45:43;;;;;;;1999.90;999.90;;;8.90;99.90;;;;;;4920900;29;20185;-91
2021/05/13 03:48:12;;;;;;;1999.90;999.90;;;8.80;99.90;;;;;;4920815;29;20173;-93
2021/05/13 03:51:07;;;;;;;1999.90;999.90;;;8.70;99.90;;;;;;4920898;29;20196;-94
2021/05/13 03:53:35;;;;;;;1999.90;999.90;;;8.70;99.90;;;;;;4921025;29;20188;-93
2021/05/13 03:56:03;;;;;;;1999.90;999.90;;;8.60;99.90;;;;;;4920928;29;20222;-92
2021/05/13 03:58:41;;;;;;;1999.90;999.90;;;8.50;99.90;;;;;;4920472;29;20502;-93
2021/05/13 04:01:12;;;;;;;1999.90;999.90;;;8.60;99.90;;;;;;4920320;29;20669;-93
2021/05/13 04:03:48;;;;;;;1999.90;999.90;;;8.60;99.90;;;;;;4936257;29;20181;-93
2021/05/13 04:06:36;;;;;;;1999.90;999.90;;;8.60;99.90;;;;;;4920932;29;20260;-94
2021/05/13 04:09:17;;;;;;;1999.90;999.90;;;8.60;99.90;;;;;;4916431;29;20210;-91
2021/05/13 04:11:58;;;;;;;1999.90;999.90;;;8.60;99.90;;;;;;4901117;29;20212;-92
2021/05/13 04:14:24;;;;;;;1999.90;999.90;;;8.60;99.90;;;;;;4902211;29;20192;-92
2021/05/13 04:17:09;;;;;;;1999.90;999.90;;;8.50;99.90;;;;;;4901870;29;20213;-90
2021/05/13 04:19:48;;;;;;;1999.90;999.90;;;8.50;99.90;;;;;;4902096;29;20182;-92
2021/05/13 04:22:15;;;;;;;1999.90;999.90;;;8.50;99.90;;;;;;4901540;29;20649;-91
2021/05/13 04:24:42;;;;;;;1999.90;999.90;;;8.50;99.90;;;;;;4901125;29;20186;-90
2021/05/13 04:27:59;;;;;;;1999.90;999.90;;;8.50;99.90;;;;;;4928865;29;20193;-91
2021/05/13 04:34:35;;;;;;;1999.90;999.90;;;8.60;99.90;;;;;;4879151;29;20202;-91
2021/05/13 04:38:15;;;;;;;1999.90;999.90;;;8.50;99.90;;;;;;4884789;29;20207;-93
2021/05/13 04:41:42;;;;;;;1999.90;999.90;;;8.50;99.90;;;;;;4912876;29;20548;-92
2021/05/13 04:51:37;;;;;;;1999.90;999.90;;;8.80;99.90;;;;;;4932146;23;20751;-92
2021/05/13 04:54:14;;;;;;;1999.90;999.90;;;8.90;99.90;;;;;;4956513;29;20181;-91
2021/05/13 04:56:49;;;;;;;1999.90;999.90;;;9.00;99.90;;;;;;4955113;29;20208;-95
2021/05/13 05:00:11;;;;;;;1999.90;999.90;;;9.10;99.90;;;;;;4952427;29;20252;-94
2021/05/13 05:25:54;;;;;;;1999.90;999.90;;;10.00;99.90;;;;;;4935340;29;20619;-86
2021/05/13 05:28:19;;;;;;;1999.90;999.90;;;10.00;99.90;;;;;;4906584;29;20621;-85
2021/05/13 05:30:45;;;;;;;1999.90;999.90;;;9.90;99.90;;;;;;4928519;29;20280;-86
2021/05/13 05:33:11;;;;;;;1999.90;999.90;;;10.00;99.90;;;;;;4899656;29;20224;-85
2021/05/13 05:35:39;;;;;;;1999.90;999.90;;;10.10;99.90;;;;;;4902989;29;20240;-85
2021/05/13 05:38:06;;;;;;;1999.90;999.90;;;10.20;99.90;;;;;;4937046;29;20177;-86
2021/05/13 05:40:32;;;;;;;1999.90;999.90;;;10.30;99.90;;;;;;4921791;29;20189;-85
2021/05/13 05:42:58;;;;;;;1999.90;999.90;;;10.40;99.90;;;;;;4921719;29;20200;-86
2021/05/13 05:45:25;;;;;;;1999.90;999.90;;;10.40;99.90;;;;;;4918918;29;20242;-85
2021/05/13 05:47:59;;;;;;;1999.90;999.90;;;10.40;99.90;;;;;;4915630;29;20194;-85
2021/05/13 05:50:26;;;;;;;1999.90;999.90;;;10.40;99.90;;;;;;4918566;29;20679;-87
2021/05/13 05:52:52;;;;;;;1999.90;999.90;;;10.50;99.90;;;;;;4928008;29;20193;-87
2021/05/13 05:55:18;;;;;;;1999.90;999.90;;;10.60;99.90;;;;;;4931332;29;20555;-86
2021/05/13 05:57:43;;;;;;;1999.90;999.90;;;11.00;99.90;;;;;;4921232;29;20618;-87
2021/05/13 06:00:10;;;;;;;1999.90;999.90;;;11.60;99.90;;;;;;4929771;29;20189;-87
2021/05/13 06:02:35;;;;;;;1999.90;999.90;;;12.10;99.90;;;;;;4919248;29;20194;-86
2021/05/13 06:05:02;;;;;;;1999.90;999.90;;;12.10;99.90;;;;;;4921631;29;20192;-87
2021/05/13 06:07:28;;;;;;;1999.90;999.90;;;12.30;99.90;;;;;;4917668;29;20190;-89
2021/05/13 06:10:06;;;;;;;;;;;;;;;;;;;;;
2021/05/13 06:12:33;;;;;;;1999.90;999.90;;;12.30;99.90;;;;;;4936649;29;20195;-91
2021/05/13 06:15:02;;;;;;;1999.90;999.90;;;12.00;99.90;;;;;;4918627;29;20190;-91
2021/05/13 06:17:29;;;;;;;1999.90;999.90;;;12.20;99.90;;;;;;4918922;29;20198;-89
2021/05/13 06:20:00;;;;;;;1999.90;999.90;;;12.20;99.90;;;;;;4927899;29;20213;-90
2021/05/13 06:22:30;;;;;;;1999.90;999.90;;;12.20;99.90;;;;;;4918116;29;20666;-90
2021/05/13 06:24:56;;;;;;;1999.90;999.90;;;12.20;99.90;;;;;;4916968;29;20212;-90
2021/05/13 06:27:22;;;;;;;1999.90;999.90;;;12.20;99.90;;;;;;4938777;29;20239;-89
2021/05/13 06:29:48;;;;;;;1999.90;999.90;;;12.30;99.90;;;;;;4911210;29;20638;-90
2021/05/13 06:32:15;;;;;;;1999.90;999.90;;;12.20;99.90;;;;;;4909229;29;20189;-91
2021/05/13 06:34:40;;;;;;;1999.90;999.90;;;12.40;99.90;;;;;;4921543;29;20189;-89
2021/05/13 06:37:06;;;;;;;1999.90;999.90;;;12.40;99.90;;;;;;4918168;29;20288;-90
2021/05/13 06:39:38;;;;;;;1999.90;999.90;;;12.60;99.90;;;;;;4925080;29;20364;-90
2021/05/13 06:42:08;;;;;;;1999.90;999.90;;;12.80;99.90;;;;;;4902400;29;20182;-89
2021/05/13 06:44:33;;;;;;;1999.90;999.90;;;12.80;99.90;;;;;;4916062;29;20197;-90
2021/05/13 06:46:59;;;;;;;1999.90;999.90;;;12.80;99.90;;;;;;4935340;29;20201;-89
2021/05/13 06:49:28;;;;;;;1999.90;999.90;;;13.00;99.90;;;;;;4901647;29;20654;-91
2021/05/13 06:51:54;;;;;;;1999.90;999.90;;;13.20;99.90;;;;;;4905733;29;20329;-89
2021/05/13 06:54:20;;;;;;;1999.90;999.90;;;13.40;99.90;;;;;;4927611;29;20194;-89
2021/05/13 06:56:48;;;;;;;1999.90;999.90;;;13.60;99.90;;;;;;4918474;29;20317;-90
2021/05/13 06:59:14;;;;;;;1999.90;999.90;;;13.60;99.90;;;;;;4902530;29;20178;-91
2021/05/13 07:01:40;;;;;;;1999.90;999.90;;;13.40;99.90;;;;;;4902619;29;20706;-90
2021/05/13 07:04:21;;;;;;;;;;;;;;;;;;;;;
2021/05/13 07:06:50;;;;;;;1999.90;999.90;;;13.70;99.90;;;;;;4920143;29;20190;-90
2021/05/13 07:09:18;;;;;;;1999.90;999.90;;;13.80;99.90;;;;;;4902266;29;20186;-91
2021/05/13 07:11:44;;;;;;;1999.90;999.90;;;14.00;99.90;;;;;;4906400;29;20712;-90
2021/05/13 07:14:10;;;;;;;1999.90;999.90;;;14.00;99.90;;;;;;4921024;29;20197;-91
2021/05/13 07:16:36;;;;;;;1999.90;999.90;;;14.10;99.90;;;;;;4921002;29;20296;-91
2021/05/13 07:19:03;;;;;;;1999.90;999.90;;;14.10;99.90;;;;;;4918197;29;20552;-91
2021/05/13 07:22:20;;;;;;;;;;;;;;;;;;;;;
2021/05/13 12:22:18;;;;;;;1999.90;999.90;;;19.30;99.90;;;;;;6006715;23;20229;31
2021/05/13 12:24:45;;;;;;;1999.90;999.90;;;20.20;99.90;;;;;;4861840;29;20210;-89
2021/05/13 12:27:16;;;;;;;1999.90;999.90;;;20.70;99.90;;;;;;4880181;29;20180;-89
2021/05/13 12:29:46;;;;;;;1999.90;999.90;;;20.90;99.90;;;;;;4879520;29;20190;-88
2021/05/13 12:32:31;;;;;;;1999.90;999.90;;;20.70;99.90;;;;;;4863030;29;20192;-89
2021/05/13 12:35:00;;;;;;;1999.90;999.90;;;20.10;99.90;;;;;;4894267;29;20198;-90
2021/05/13 12:37:28;;;;;;;1999.90;999.90;;;19.70;99.90;;;;;;4862711;29;20229;-91
2021/05/13 12:40:08;;;;;;;1999.90;999.90;;;20.20;99.90;;;;;;4862614;29;20210;-90
2021/05/13 12:42:37;;;;;;;1999.90;999.90;;;20.90;99.90;;;;;;4878078;29;20250;-91
2021/05/13 12:45:25;;;;;;;1999.90;999.90;;;20.40;99.90;;;;;;4878292;29;20195;-88
2021/05/13 12:48:03;;;;;;;1999.90;999.90;;;19.70;99.90;;;;;;4881519;29;20179;-90
2021/05/13 12:50:38;;;;;;;1999.90;999.90;;;19.30;99.90;;;;;;4898757;29;20183;-90
2021/05/13 12:53:23;;;;;;;1999.90;999.90;;;19.10;99.90;;;;;;4898002;29;20197;-88
2021/05/13 12:56:20;;;;;;;1999.90;999.90;;;18.80;99.90;;;;;;4895107;29;20200;-91
2021/05/13 12:58:46;;;;;;;1999.90;999.90;;;18.40;99.90;;;;;;4875161;29;20559;-91
2021/05/13 13:01:19;;;;;;;1999.90;999.90;;;18.00;99.90;;;;;;4867277;29;20190;-91
2021/05/13 13:04:01;;;;;;;1999.90;999.90;;;17.50;99.90;;;;;;4867785;29;20197;-90
2021/05/13 13:06:29;;;;;;;1999.90;999.90;;;17.10;99.90;;;;;;4876549;29;20195;-90
2021/05/13 13:09:04;;;;;;;1999.90;999.90;;;16.90;99.90;;;;;;4874600;29;20562;-90
2021/05/13 13:11:42;;;;;;;1999.90;999.90;;;16.40;99.90;;;;;;4867291;29;20187;-87
2021/05/13 13:14:30;;;;;;;1999.90;999.90;;;16.30;99.90;;;;;;4866601;29;20190;-88
2021/05/13 13:16:56;;;;;;;1999.90;999.90;;;16.30;99.90;;;;;;4866787;29;20216;-88
2021/05/13 13:19:26;;;;;;;1999.90;999.90;;;16.20;99.90;;;;;;4883608;29;20267;-91
2021/05/13 13:22:03;;;;;;;1999.90;999.90;;;16.30;99.90;;;;;;4867349;29;20175;-89
2021/05/13 13:24:31;;;;;;;1999.90;999.90;;;16.20;99.90;;;;;;4866825;29;20194;-90
2021/05/13 13:27:04;;;;;;;1999.90;999.90;;;16.20;99.90;;;;;;4866228;29;20671;-88
2021/05/13 13:29:30;;;;;;;1999.90;999.90;;;16.40;99.90;;;;;;4881980;29;20532;-88
2021/05/13 13:32:01;;;;;;;1999.90;999.90;;;16.40;99.90;;;;;;4881589;29;20282;-89
2021/05/13 13:34:53;;;;;;;1999.90;999.90;;;16.30;99.90;;;;;;4881693;29;20624;-90
2021/05/13 13:37:55;;;;;;;;;;;;;;;;;;;;;
2021/05/13 13:40:13;;;;;;;1999.90;999.90;;;15.30;99.90;;;;;;4880440;29;20223;-90
2021/05/13 13:42:39;;;;;;;1999.90;999.90;;;15.00;99.90;;;;;;4866296;29;20180;-90
2021/05/13 13:45:06;;;;;;;1999.90;999.90;;;14.90;99.90;;;;;;4865906;29;20194;-89
2021/05/13 13:47:56;;;;;;;1999.90;999.90;;;14.90;99.90;;;;;;4881905;29;20180;-89
2021/05/13 13:50:22;;;;;;;1999.90;999.90;;;14.70;99.90;;;;;;4866701;29;20180;-91
2021/05/13 13:52:51;;;;;;;1999.90;999.90;;;14.80;99.90;;;;;;4866449;29;20187;-91
2021/05/13 13:58:18;;;;;;;1999.90;999.90;;;14.70;99.90;;;;;;4862970;29;20216;-91
2021/05/13 14:00:45;;;;;;;1999.90;999.90;;;14.90;99.90;;;;;;4878873;29;20275;-89
2021/05/13 14:03:11;;;;;;;1999.90;999.90;;;15.10;99.90;;;;;;4878355;29;20713;-89
2021/05/13 14:05:39;;;;;;;1999.90;999.90;;;15.20;99.90;;;;;;4878443;29;20645;-92
2021/05/13 14:08:13;;;;;;;1999.90;999.90;;;15.30;99.90;;;;;;4878752;29;20183;-90
2021/05/13 14:10:51;;;;;;;1999.90;999.90;;;15.20;99.90;;;;;;4864656;29;20187;-92
2021/05/13 14:13:46;;;;;;;;;;;;;;;;;;;;;
2021/05/13 14:16:16;;;;;;;1999.90;999.90;;;14.90;99.90;;;;;;4866301;29;20672;-89
2021/05/13 14:18:41;;;;;;;1999.90;999.90;;;14.90;99.90;;;;;;4880219;29;20205;-89
2021/05/13 14:21:09;;;;;;;1999.90;999.90;;;14.80;99.90;;;;;;4877897;29;20192;-90
2021/05/13 14:23:35;;;;;;;1999.90;999.90;;;15.10;99.90;;;;;;4877995;29;20196;-90
2021/05/13 14:26:01;;;;;;;1999.90;999.90;;;15.10;99.90;;;;;;4878185;29;20268;-88
2021/05/13 14:28:26;;;;;;;1999.90;999.90;;;14.80;99.90;;;;;;4877845;29;20196;-90
2021/05/13 14:30:59;;;;;;;1999.90;999.90;;;14.90;99.90;;;;;;4877857;29;20184;-89
2021/05/13 14:33:37;;;;;;;1999.90;999.90;;;15.30;99.90;;;;;;4878427;29;20595;-91
2021/05/13 14:36:06;;;;;;;1999.90;999.90;;;15.20;99.90;;;;;;4878002;29;20581;-91
2021/05/13 14:38:32;;;;;;;1999.90;999.90;;;15.30;99.90;;;;;;4878087;29;20663;-90
2021/05/13 14:41:04;;;;;;;1999.90;999.90;;;15.40;99.90;;;;;;4877770;29;20184;-92
2021/05/13 14:43:29;;;;;;;1999.90;999.90;;;15.40;99.90;;;;;;4877953;29;20180;-89
2021/05/13 14:49:38;;;;;;;1999.90;999.90;;;15.50;99.90;;;;;;4858351;29;20195;-92
2021/05/13 14:53:14;;;;;;;;;;;;;;;;;;;;;
2021/05/13 17:03:51;;;;;;;;;;;;;;;;;;;;;
2021/05/13 17:06:34;;;;;;;1999.90;999.90;;;15.70;99.90;;;;;;4901310;29;20253;-92
2021/05/13 17:09:09;;;;;;;1999.90;999.90;;;15.60;99.90;;;;;;4918076;29;20186;-91
2021/05/13 17:11:37;;;;;;;1999.90;999.90;;;15.50;99.90;;;;;;4920412;29;20194;-89
2021/05/13 17:14:09;;;;;;;1999.90;999.90;;;15.60;99.90;;;;;;4908890;29;20705;-91
2021/05/13 17:16:55;;;;;;;1999.90;999.90;;;15.50;99.90;;;;;;4916628;29;20245;-91
2021/05/13 17:19:31;;;;;;;1999.90;999.90;;;15.60;99.90;;;;;;4917301;29;20529;-91
2021/05/13 17:21:59;;;;;;;1999.90;999.90;;;15.40;99.90;;;;;;4900518;29;20196;-90
2021/05/13 17:27:42;;;;;;;1999.90;999.90;;;15.30;99.90;;;;;;4881994;29;20249;-90
2021/05/13 17:30:39;;;;;;;1999.90;999.90;;;15.20;99.90;;;;;;4910633;29;20221;-91
2021/05/13 17:34:15;;;;;;;1999.90;999.90;;;15.10;99.90;;;;;;4932816;29;20240;-94
2021/05/13 17:38:18;;;;;;;1999.90;999.90;;;15.00;99.90;;;;;;4913728;29;20217;-90
2021/05/13 17:41:05;;;;;;;1999.90;999.90;;;15.00;99.90;;;;;;4905356;29;20230;-92
2021/05/13 17:43:37;;;;;;;1999.90;999.90;;;15.00;99.90;;;;;;4918018;29;20182;-91
2021/05/13 17:46:14;;;;;;;1999.90;999.90;;;15.00;99.90;;;;;;4920053;29;20645;-91
2021/05/13 17:49:01;;;;;;;;;;;;;;;;;;;;;
2021/05/13 17:51:35;;;;;;;1999.90;999.90;;;14.90;99.90;;;;;;4921002;29;20182;-90
2021/05/13 17:54:16;;;;;;;1999.90;999.90;;;14.90;99.90;;;;;;4920081;29;20190;-90
2021/05/13 17:57:06;;;;;;;1999.90;999.90;;;14.90;99.90;;;;;;4893476;29;20203;-91
2021/05/13 18:00:28;;;;;;;1999.90;999.90;;;14.80;99.90;;;;;;4900419;29;20198;-92
2021/05/13 18:03:50;;;;;;;1999.90;999.90;;;14.70;99.90;;;;;;4878159;29;20202;-91
2021/05/13 18:06:46;;;;;;;1999.90;999.90;;;14.70;99.90;;;;;;4917943;29;20263;-92
2021/05/13 18:09:29;;;;;;;1999.90;999.90;;;14.60;99.90;;;;;;4919116;29;20190;-91
2021/05/13 18:12:46;;;;;;;;;;;;;;;;;;;;;
2021/05/13 18:15:40;;;;;;;1999.90;999.90;;;14.60;99.90;;;;;;4882813;29;20198;-91
2021/05/13 18:18:45;;;;;;;1999.90;999.90;;;14.50;99.90;;;;;;4860794;29;20191;-92
2021/05/13 18:21:11;;;;;;;1999.90;999.90;;;14.40;99.90;;;;;;4900036;29;20186;-91
2021/05/13 18:23:43;;;;;;;1999.90;999.90;;;14.40;99.90;;;;;;4899949;29;20183;-90
2021/05/13 18:26:18;;;;;;;1999.90;999.90;;;14.40;99.90;;;;;;4900407;29;20635;-91
2021/05/13 18:28:57;;;;;;;1999.90;999.90;;;14.20;99.90;;;;;;4899960;29;20222;-92
2021/05/13 18:31:24;;;;;;;1999.90;999.90;;;14.20;99.90;;;;;;4900136;29;20553;-90
2021/05/13 18:33:49;;;;;;;1999.90;999.90;;;14.10;99.90;;;;;;4900057;29;20190;-90
2021/05/13 18:37:03;;;;;;;1999.90;999.90;;;14.00;99.90;;;;;;4899607;29;20210;-91
2021/05/13 18:39:31;;;;;;;1999.90;999.90;;;13.90;99.90;;;;;;4899518;29;20677;-92
2021/05/13 18:41:59;;;;;;;1999.90;999.90;;;13.90;99.90;;;;;;4899874;29;20206;-91
2021/05/13 18:44:25;;;;;;;1999.90;999.90;;;13.80;99.90;;;;;;4899239;29;20206;-88
2021/05/13 18:46:51;;;;;;;1999.90;999.90;;;13.80;99.90;;;;;;4899796;29;20218;-89
2021/05/13 18:49:23;;;;;;;1999.90;999.90;;;13.60;99.90;;;;;;4899659;29;20189;-91
2021/05/13 18:51:48;;;;;;;1999.90;999.90;;;13.70;99.90;;;;;;4899417;29;20202;-88
2021/05/13 18:54:16;;;;;;;1999.90;999.90;;;13.60;99.90;;;;;;4899137;29;20187;-89
2021/05/13 18:56:54;;;;;;;1999.90;999.90;;;13.60;99.90;;;;;;4906854;29;20211;-92
2021/05/13 18:59:27;;;;;;;1999.90;999.90;;;13.50;99.90;;;;;;4904182;29;20214;-90
2021/05/13 19:01:55;;;;;;;1999.90;999.90;;;13.40;99.90;;;;;;4905385;29;20643;-90
2021/05/13 19:04:59;;;;;;;1999.90;999.90;;;13.30;99.90;;;;;;4902937;29;20194;-91
2021/05/13 19:07:45;;;;;;;1999.90;999.90;;;13.30;99.90;;;;;;4918993;29;20189;-91
2021/05/13 19:10:22;;;;;;;1999.90;999.90;;;13.10;99.90;;;;;;4918862;29;20212;-87
2021/05/13 19:12:52;;;;;;;1999.90;999.90;;;13.10;99.90;;;;;;4917919;29;20193;-91
2021/05/13 19:15:22;;;;;;;1999.90;999.90;;;12.90;99.90;;;;;;4918186;29;20190;-89
2021/05/13 19:17:48;;;;;;;1999.90;999.90;;;12.80;99.90;;;;;;4918637;29;20198;-89
2021/05/13 19:20:17;;;;;;;1999.90;999.90;;;12.70;99.90;;;;;;4902066;29;20198;-90
2021/05/13 19:22:43;;;;;;;1999.90;999.90;;;12.60;99.90;;;;;;4917515;29;20189;-88
2021/05/13 19:25:12;;;;;;;1999.90;999.90;;;12.50;99.90;;;;;;4916742;29;20178;-89
2021/05/13 19:27:42;;;;;;;1999.90;999.90;;;12.40;99.90;;;;;;4916531;29;20194;-89
2021/05/13 19:35:46;;;;;;;1999.90;999.90;;;12.10;99.90;;;;;;4918361;29;20189;-89
2021/05/13 19:38:17;;;;;;;1999.90;999.90;;;12.00;99.90;;;;;;4901450;29;20559;-89
2021/05/13 19:40:47;;;;;;;1999.90;999.90;;;12.00;99.90;;;;;;4933490;29;20190;-89
2021/05/13 19:43:17;;;;;;;1999.90;999.90;;;12.00;99.90;;;;;;4917410;29;20334;-89
2021/05/13 19:45:43;;;;;;;1999.90;999.90;;;11.90;99.90;;;;;;4917350;29;20677;-88
2021/05/13 19:48:10;;;;;;;1999.90;999.90;;;11.90;99.90;;;;;;4917623;29;20182;-89
2021/05/13 19:50:37;;;;;;;1999.90;999.90;;;11.70;99.90;;;;;;4901250;29;20182;-89
2021/05/13 19:53:04;;;;;;;1999.90;999.90;;;11.60;99.90;;;;;;4918490;29;20193;-89
2021/05/13 19:55:33;;;;;;;1999.90;999.90;;;11.50;99.90;;;;;;4917107;29;20280;-90
2021/05/13 19:58:01;;;;;;;1999.90;999.90;;;11.50;99.90;;;;;;4916666;29;20194;-89
2021/05/13 20:00:27;;;;;;;1999.90;999.90;;;11.50;99.90;;;;;;4918679;29;20710;-89
2021/05/13 20:05:36;;;;;;;1999.90;999.90;;;11.30;99.90;;;;;;4918478;29;20531;-89
2021/05/13 20:08:33;;;;;;;1999.90;999.90;;;11.30;99.90;;;;;;4901240;29;20214;-89
2021/05/13 20:13:37;;;;;;;1999.90;999.90;;;11.20;99.90;;;;;;4918005;29;20197;-90
2021/05/13 20:16:04;;;;;;;1999.90;999.90;;;11.20;99.90;;;;;;4901118;29;20205;-89
2021/05/13 20:18:34;;;;;;;1999.90;999.90;;;11.10;99.90;;;;;;4916697;29;20234;-89
2021/05/13 20:21:01;;;;;;;1999.90;999.90;;;11.00;99.90;;;;;;4916967;29;20244;-90
2021/05/13 20:23:27;;;;;;;1999.90;999.90;;;11.00;99.90;;;;;;4917271;29;20638;-88
2021/05/13 20:28:52;;;;;;;1999.90;999.90;;;10.90;99.90;;;;;;4885659;29;20669;-89
2021/05/13 20:31:22;;;;;;;1999.90;999.90;;;10.80;99.90;;;;;;4900741;29;20637;-88
2021/05/13 20:33:48;;;;;;;1999.90;999.90;;;10.70;99.90;;;;;;4900542;29;20686;-89
2021/05/13 20:36:14;;;;;;;1999.90;999.90;;;10.70;99.90;;;;;;4916384;29;20229;-88
2021/05/13 20:38:40;;;;;;;1999.90;999.90;;;10.80;99.90;;;;;;4916449;29;20186;-88
2021/05/13 20:41:09;;;;;;;1999.90;999.90;;;10.80;99.90;;;;;;4916749;29;20186;-89
2021/05/13 20:43:35;;;;;;;1999.90;999.90;;;10.70;99.90;;;;;;4916575;29;20197;-88
2021/05/13 20:46:03;;;;;;;1999.90;999.90;;;10.60;99.90;;;;;;4900904;29;20217;-88
2021/05/13 20:48:31;;;;;;;1999.90;999.90;;;10.50;99.90;;;;;;4919765;29;20277;-89
2021/05/13 20:59:22;;;;;;;1999.90;999.90;;;10.40;99.90;;;;;;4918005;29;20253;-89
2021/05/13 21:01:52;;;;;;;1999.90;999.90;;;10.30;99.90;;;;;;4916158;29;20213;-89